createdAt,value
2023-01-17T00:02:14.503Z,4.30
2023-01-17T00:04:41.503Z,4.30
2023-01-17T00:07:11.220Z,4.20
2023-01-17T00:09:37.831Z,4.20
2023-01-17T00:12:06.880Z,4.20
2023-01-17T00:14:34.069Z,4.20
2023-01-17T00:17:00.724Z,4.20
2023-01-17T00:19:27.918Z,4.20
2023-01-17T00:21:54.852Z,4.10
2023-01-17T00:24:21.519Z,4.10
2023-01-17T00:26:48.223Z,4.10
2023-01-17T00:29:14.919Z,4.10
2023-01-17T00:31:41.600Z,4.00
2023-01-17T00:34:08.272Z,4.00
2023-01-17T00:36:34.957Z,4.00
2023-01-17T00:39:01.808Z,3.90
2023-01-17T00:41:28.843Z,3.90
2023-01-17T00:43:55.557Z,3.80
2023-01-17T00:46:22.370Z,3.80
2023-01-17T00:48:49.096Z,3.80
2023-01-17T00:51:16.431Z,3.80
2023-01-17T00:53:43.170Z,3.70
2023-01-17T00:56:09.844Z,3.70
2023-01-17T00:58:36.559Z,3.70
2023-01-17T01:01:06.613Z,3.70
2023-01-17T01:03:33.389Z,3.60
2023-01-17T01:06:03.721Z,3.60
2023-01-17T01:08:30.447Z,3.60
2023-01-17T01:10:57.127Z,3.60
2023-01-17T01:13:26.066Z,3.50
2023-01-17T01:15:52.763Z,3.50
2023-01-17T01:18:19.435Z,3.50
2023-01-17T01:20:46.141Z,3.50
2023-01-17T01:23:12.790Z,3.50
2023-01-17T01:25:39.503Z,3.50
2023-01-17T01:28:10.244Z,3.50
2023-01-17T01:30:38.248Z,3.50
2023-01-17T01:33:12.588Z,3.60
2023-01-17T01:35:39.244Z,3.60
2023-01-17T01:38:06.125Z,3.70
2023-01-17T01:40:32.841Z,3.70
2023-01-17T01:43:00.353Z,3.70
2023-01-17T01:45:32.470Z,3.70
2023-01-17T01:48:19.190Z,3.60
2023-01-17T01:50:48.668Z,3.60
2023-01-17T01:53:17.874Z,3.60
2023-01-17T01:55:47.762Z,3.60
2023-01-17T01:58:30.220Z,3.60
2023-01-17T02:00:57.074Z,3.60
2023-01-17T02:03:28.010Z,3.60
2023-01-17T02:05:55.107Z,3.60
2023-01-17T02:08:23.882Z,3.60
2023-01-17T02:10:51.164Z,3.60
2023-01-17T02:13:20.289Z,3.60
2023-01-17T02:15:59.890Z,3.70
2023-01-17T02:18:35.437Z,3.60
2023-01-17T02:21:08.221Z,3.70
2023-01-17T02:23:59.818Z,3.70
2023-01-17T02:26:49.882Z,3.60
2023-01-17T02:29:45.228Z,3.70
2023-01-17T02:32:20.835Z,3.70
2023-01-17T02:34:56.288Z,3.60
2023-01-17T02:37:42.216Z,3.60
2023-01-17T02:40:28.256Z,3.60
2023-01-17T02:43:00.962Z,3.60
2023-01-17T02:45:27.788Z,3.50
2023-01-17T02:47:54.526Z,3.60
2023-01-17T02:50:41.382Z,3.60
2023-01-17T02:53:49.926Z,3.60
2023-01-17T02:56:22.937Z,3.60
2023-01-17T02:58:55.417Z,3.70
2023-01-17T03:01:34.315Z,3.70
2023-01-17T03:04:11.925Z,3.70
2023-01-17T03:06:41.332Z,3.70
2023-01-17T03:09:09.451Z,3.70
2023-01-17T03:11:36.753Z,3.80
2023-01-17T03:14:03.480Z,3.80
2023-01-17T03:16:32.870Z,3.80
2023-01-17T03:18:59.720Z,3.80
2023-01-17T03:21:26.416Z,3.80
2023-01-17T03:23:53.085Z,3.80
2023-01-17T03:26:19.749Z,3.80
2023-01-17T03:28:46.494Z,3.80
2023-01-17T03:31:17.696Z,3.90
2023-01-17T03:33:44.446Z,3.90
2023-01-17T03:36:11.353Z,3.90
2023-01-17T03:38:38.215Z,3.90
2023-01-17T03:41:05.249Z,3.90
2023-01-17T03:43:31.916Z,4.00
2023-01-17T03:46:04.215Z,4.00
2023-01-17T03:48:31.351Z,4.00
2023-01-17T03:50:58.263Z,4.00
2023-01-17T03:53:25.093Z,4.10
2023-01-17T03:55:52.151Z,4.10
2023-01-17T03:58:21.199Z,4.10
2023-01-17T04:00:47.956Z,4.10
2023-01-17T04:03:16.967Z,4.10
2023-01-17T04:05:43.680Z,4.20
2023-01-17T04:08:10.399Z,4.10
2023-01-17T04:10:37.080Z,4.10
2023-01-17T04:13:03.823Z,4.10
2023-01-17T04:15:30.715Z,4.20
2023-01-17T04:17:58.050Z,4.10
2023-01-17T04:20:39.234Z,4.20
2023-01-17T04:23:06.955Z,4.20
2023-01-17T04:25:34.257Z,4.20
2023-01-17T04:28:02.356Z,4.20
2023-01-17T04:30:29.981Z,4.20
2023-01-17T04:32:57.091Z,4.20
2023-01-17T04:35:24.616Z,4.20
2023-01-17T04:37:52.625Z,4.20
2023-01-17T04:40:19.490Z,4.20
2023-01-17T04:42:46.397Z,4.20
2023-01-17T04:45:13.347Z,4.20
2023-01-17T04:47:40.303Z,4.20
2023-01-17T04:50:08.536Z,4.10
2023-01-17T04:52:35.231Z,4.10
2023-01-17T04:55:02.112Z,4.10
2023-01-17T04:57:28.811Z,4.10
2023-01-17T04:59:55.558Z,4.10
2023-01-17T05:02:22.501Z,4.00
2023-01-17T05:04:49.315Z,4.00
2023-01-17T05:07:15.990Z,4.00
2023-01-17T05:09:42.667Z,4.00
2023-01-17T05:12:09.927Z,4.00
2023-01-17T05:14:36.595Z,4.00
2023-01-17T05:17:03.285Z,4.00
2023-01-17T05:19:29.967Z,4.00
2023-01-17T05:21:56.592Z,4.00
2023-01-17T05:24:23.247Z,4.00
2023-01-17T05:26:50.353Z,4.00
2023-01-17T05:29:17.103Z,4.00
2023-01-17T05:31:43.849Z,3.90
2023-01-17T05:34:10.615Z,3.90
2023-01-17T05:36:37.476Z,3.90
2023-01-17T05:39:04.125Z,3.90
2023-01-17T05:41:30.832Z,3.90
2023-01-17T05:43:57.499Z,3.90
2023-01-17T05:46:24.208Z,3.90
2023-01-17T05:48:50.934Z,3.90
2023-01-17T05:51:17.766Z,3.90
2023-01-17T05:53:44.521Z,3.90
2023-01-17T05:56:11.188Z,3.90
2023-01-17T05:58:37.899Z,3.90
2023-01-17T06:01:04.630Z,3.90
2023-01-17T06:03:31.682Z,3.90
2023-01-17T06:05:58.353Z,4.00
2023-01-17T06:08:25.009Z,4.00
2023-01-17T06:10:51.682Z,3.90
2023-01-17T06:13:18.913Z,3.90
2023-01-17T06:15:45.633Z,3.90
2023-01-17T06:18:14.641Z,3.90
2023-01-17T06:20:42.539Z,3.90
2023-01-17T06:23:11.703Z,3.90
2023-01-17T06:25:43.830Z,3.90
2023-01-17T06:28:11.660Z,3.90
2023-01-17T06:30:38.454Z,3.90
2023-01-17T06:33:05.820Z,3.80
2023-01-17T06:35:33.724Z,3.80
2023-01-17T06:38:00.531Z,3.80
2023-01-17T06:40:28.678Z,3.80
2023-01-17T06:43:02.919Z,3.80
2023-01-17T06:45:31.741Z,3.80
2023-01-17T06:48:00.712Z,3.80
2023-01-17T06:50:27.697Z,3.80
2023-01-17T06:53:00.578Z,3.70
2023-01-17T06:55:28.890Z,3.70
2023-01-17T06:57:59.126Z,3.80
2023-01-17T07:00:27.345Z,3.80
2023-01-17T07:02:54.221Z,3.80
2023-01-17T07:05:21.531Z,3.80
2023-01-17T07:07:48.482Z,3.80
2023-01-17T07:10:15.768Z,3.80
2023-01-17T07:12:42.743Z,3.80
2023-01-17T07:15:10.410Z,3.80
2023-01-17T07:17:37.417Z,3.80
2023-01-17T07:20:04.415Z,3.90
2023-01-17T07:22:31.076Z,3.80
2023-01-17T07:24:57.755Z,3.80
2023-01-17T07:27:28.210Z,3.80
2023-01-17T07:29:54.877Z,3.90
2023-01-17T07:32:21.734Z,3.80
2023-01-17T07:34:48.404Z,3.80
2023-01-17T07:37:15.481Z,3.80
2023-01-17T07:39:42.424Z,3.70
2023-01-17T07:42:09.180Z,3.70
2023-01-17T07:44:36.147Z,3.70
2023-01-17T07:47:02.878Z,3.70
2023-01-17T07:49:29.523Z,3.70
2023-01-17T07:51:56.178Z,3.80
2023-01-17T07:54:22.901Z,3.70
2023-01-17T07:56:49.578Z,3.70
2023-01-17T07:59:16.322Z,3.70
2023-01-17T08:01:43.152Z,3.70
2023-01-17T08:04:10.232Z,3.70
2023-01-17T08:06:39.229Z,3.80
2023-01-17T08:09:06.001Z,3.90
2023-01-17T08:11:32.723Z,3.80
2023-01-17T08:13:59.613Z,3.80
2023-01-17T08:16:27.398Z,3.80
2023-01-17T08:18:55.945Z,3.90
2023-01-17T08:21:23.209Z,3.90
2023-01-17T08:23:51.250Z,3.90
2023-01-17T08:26:19.526Z,4.00
2023-01-17T08:28:46.238Z,3.90
2023-01-17T08:31:12.928Z,4.00
2023-01-17T08:33:39.661Z,4.00
2023-01-17T08:36:07.981Z,4.00
2023-01-17T08:38:35.143Z,4.00
2023-01-17T08:41:01.891Z,4.00
2023-01-17T08:43:28.589Z,4.00
2023-01-17T08:45:55.359Z,4.10
2023-01-17T08:48:25.401Z,4.10
2023-01-17T08:50:52.087Z,4.10
2023-01-17T08:53:18.826Z,4.20
2023-01-17T08:55:45.596Z,4.20
2023-01-17T08:58:14.910Z,4.20
2023-01-17T09:00:41.688Z,4.20
2023-01-17T09:03:10.839Z,4.20
2023-01-17T09:05:39.636Z,4.20
2023-01-17T09:08:06.372Z,4.20
2023-01-17T09:10:33.108Z,4.20
2023-01-17T09:12:59.822Z,4.20
2023-01-17T09:15:29.046Z,4.30
2023-01-17T09:17:59.735Z,4.30
2023-01-17T09:20:26.500Z,4.40
2023-01-17T09:22:53.190Z,4.40
2023-01-17T09:25:19.929Z,4.40
2023-01-17T09:27:46.887Z,4.40
2023-01-17T09:30:14.070Z,4.30
2023-01-17T09:32:40.834Z,4.30
2023-01-17T09:35:07.984Z,4.30
2023-01-17T09:37:34.685Z,4.30
2023-01-17T09:40:01.366Z,4.30
2023-01-17T09:42:35.750Z,4.30
2023-01-17T09:45:02.847Z,4.40
2023-01-17T09:47:32.419Z,4.30
2023-01-17T09:50:17.175Z,4.30
2023-01-17T09:52:44.592Z,4.30
2023-01-17T09:55:18.756Z,4.20
2023-01-17T09:57:51.093Z,4.20
2023-01-17T10:00:34.329Z,4.20
2023-01-17T10:03:18.612Z,4.10
2023-01-17T10:05:54.150Z,4.20
2023-01-17T10:08:27.108Z,4.10
2023-01-17T10:11:31.464Z,4.20
2023-01-17T10:14:13.480Z,4.20
2023-01-17T10:16:40.200Z,4.20
2023-01-17T10:19:28.295Z,4.20
2023-01-17T10:22:13.949Z,4.20
2023-01-17T10:25:00.350Z,4.20
2023-01-17T10:27:38.153Z,4.20
2023-01-17T10:30:22.979Z,4.20
2023-01-17T10:32:49.961Z,4.20
2023-01-17T10:35:25.587Z,4.20
2023-01-17T10:37:53.272Z,4.20
2023-01-17T10:40:27.122Z,4.10
2023-01-17T10:43:25.322Z,4.10
2023-01-17T10:45:55.189Z,4.10
2023-01-17T10:48:33.982Z,3.90
2023-01-17T10:51:26.955Z,3.90
2023-01-17T10:54:05.736Z,3.90
2023-01-17T10:56:34.311Z,3.80
2023-01-17T10:59:30.581Z,3.80
2023-01-17T11:01:58.334Z,3.80
2023-01-17T11:04:37.120Z,3.70
2023-01-17T11:07:24.315Z,3.70
2023-01-17T11:09:56.335Z,3.60
2023-01-17T11:12:30.007Z,3.70
2023-01-17T11:15:02.826Z,3.60
2023-01-17T11:17:30.779Z,3.60
2023-01-17T11:20:45.929Z,3.70
2023-01-17T11:23:20.612Z,3.70
2023-01-17T11:25:57.162Z,3.80
2023-01-17T11:28:29.055Z,3.80
2023-01-17T11:30:58.172Z,3.70
2023-01-17T11:33:44.819Z,3.60
2023-01-17T11:36:27.488Z,3.60
2023-01-17T11:39:17.431Z,3.40
2023-01-17T11:41:45.590Z,3.20
2023-01-17T11:44:25.465Z,3.10
2023-01-17T11:47:17.617Z,2.90
2023-01-17T11:49:47.165Z,2.80
2023-01-17T11:52:33.342Z,2.70
2023-01-17T11:55:00.333Z,2.60
2023-01-17T11:57:30.976Z,2.50
2023-01-17T12:00:24.300Z,2.30
2023-01-17T12:03:08.939Z,2.20
2023-01-17T12:06:12.865Z,2.20
2023-01-17T12:09:11.884Z,2.30
2023-01-17T12:11:58.833Z,2.40
2023-01-17T12:14:36.224Z,2.50
2023-01-17T12:17:26.325Z,2.50
2023-01-17T12:19:59.602Z,2.50
2023-01-17T12:22:46.758Z,2.60
2023-01-17T12:25:40.555Z,2.60
2023-01-17T12:28:27.817Z,2.80
2023-01-17T12:30:57.355Z,2.80
2023-01-17T12:33:50.685Z,2.90
2023-01-17T12:36:43.385Z,2.90
2023-01-17T12:39:11.213Z,3.00
2023-01-17T12:41:59.964Z,3.00
2023-01-17T12:44:48.097Z,3.10
2023-01-17T12:47:15.860Z,3.10
2023-01-17T12:49:45.708Z,3.10
2023-01-17T12:52:24.390Z,3.00
2023-01-17T12:54:58.162Z,3.00
2023-01-17T12:57:37.345Z,3.10
2023-01-17T13:00:14.541Z,3.10
2023-01-17T13:02:59.376Z,3.20
2023-01-17T13:05:41.707Z,3.20
2023-01-17T13:08:32.850Z,3.20
2023-01-17T13:11:22.989Z,3.20
2023-01-17T13:13:50.313Z,3.20
2023-01-17T13:16:29.041Z,3.20
2023-01-17T13:19:01.778Z,3.20
2023-01-17T13:21:34.052Z,3.20
2023-01-17T13:24:00.732Z,3.20
2023-01-17T13:26:48.698Z,3.30
2023-01-17T13:29:40.065Z,3.30
2023-01-17T13:32:15.671Z,3.30
2023-01-17T13:34:48.329Z,3.20
2023-01-17T13:37:43.140Z,3.20
2023-01-17T13:40:49.534Z,3.20
2023-01-17T13:43:26.052Z,3.30
2023-01-17T13:45:59.137Z,3.30
2023-01-17T13:48:29.081Z,3.20
2023-01-17T13:51:03.848Z,3.30
2023-01-17T13:53:36.949Z,3.30
2023-01-17T13:56:18.745Z,3.30
2023-01-17T13:58:45.446Z,3.30
2023-01-17T14:01:12.905Z,3.30
2023-01-17T14:03:51.916Z,3.30
2023-01-17T14:06:59.333Z,3.30
2023-01-17T14:09:52.893Z,3.30
2023-01-17T14:12:19.551Z,3.30
2023-01-17T14:14:52.168Z,3.30
2023-01-17T14:17:18.948Z,3.30
2023-01-17T14:19:47.473Z,3.30
2023-01-17T14:22:20.533Z,3.30
2023-01-17T14:25:02.503Z,3.30
2023-01-17T14:27:32.832Z,3.30
2023-01-17T14:30:01.696Z,3.40
2023-01-17T14:32:34.536Z,3.40
2023-01-17T14:35:03.639Z,3.40
2023-01-17T14:37:37.816Z,3.40
2023-01-17T14:40:23.003Z,3.50
2023-01-17T14:43:05.593Z,3.40
2023-01-17T14:45:34.787Z,3.40
2023-01-17T14:48:05.004Z,3.40
2023-01-17T14:50:40.584Z,3.40
2023-01-17T14:53:11.022Z,3.40
2023-01-17T14:55:47.724Z,3.40
2023-01-17T14:58:17.984Z,3.30
2023-01-17T15:00:44.726Z,3.30
2023-01-17T15:03:14.806Z,3.30
2023-01-17T15:05:44.298Z,3.30
2023-01-17T15:08:17.339Z,3.30
2023-01-17T15:11:07.724Z,3.30
2023-01-17T15:13:46.454Z,3.40
2023-01-17T15:16:28.747Z,3.30
2023-01-17T15:18:57.054Z,3.30
2023-01-17T15:21:28.038Z,3.30
2023-01-17T15:23:57.691Z,3.20
2023-01-17T15:26:26.818Z,3.20
2023-01-17T15:29:01.764Z,3.20
2023-01-17T15:31:48.400Z,3.20
2023-01-17T15:34:39.709Z,3.20
2023-01-17T15:37:25.220Z,3.10
2023-01-17T15:39:52.273Z,3.10
2023-01-17T15:42:28.421Z,3.10
2023-01-17T15:45:01.808Z,3.10
2023-01-17T15:47:33.382Z,3.10
2023-01-17T15:50:02.533Z,3.00
2023-01-17T15:52:32.324Z,3.00
2023-01-17T15:55:13.063Z,3.00
2023-01-17T15:57:40.374Z,2.90
2023-01-17T16:00:13.892Z,2.90
2023-01-17T16:02:51.387Z,2.90
2023-01-17T16:05:24.397Z,2.90
2023-01-17T16:07:56.580Z,2.90
2023-01-17T16:10:31.825Z,2.80
2023-01-17T16:13:06.379Z,2.80
2023-01-17T16:15:33.547Z,2.80
2023-01-17T16:18:06.023Z,2.80
2023-01-17T16:20:48.529Z,2.70
2023-01-17T16:23:15.480Z,2.70
2023-01-17T16:25:43.348Z,2.70
2023-01-17T16:28:10.427Z,2.70
2023-01-17T16:30:37.704Z,2.60
2023-01-17T16:33:04.892Z,2.60
2023-01-17T16:35:34.134Z,2.60
2023-01-17T16:38:04.125Z,2.60
2023-01-17T16:40:33.548Z,2.60
2023-01-17T16:43:03.372Z,2.60
2023-01-17T16:45:30.321Z,2.50
2023-01-17T16:47:57.051Z,2.50
2023-01-17T16:50:24.996Z,2.40
2023-01-17T16:52:55.015Z,2.40
2023-01-17T16:55:24.558Z,2.40
2023-01-17T16:57:56.742Z,2.40
2023-01-17T17:00:23.883Z,2.40
2023-01-17T17:02:51.551Z,2.40
2023-01-17T17:05:18.720Z,2.40
2023-01-17T17:07:45.910Z,2.30
2023-01-17T17:10:15.454Z,2.30
2023-01-17T17:12:43.110Z,2.30
2023-01-17T17:15:14.291Z,2.30
2023-01-17T17:17:42.888Z,2.30
2023-01-17T17:20:12.563Z,2.30
2023-01-17T17:22:40.666Z,2.30
2023-01-17T17:25:07.669Z,2.30
2023-01-17T17:27:41.094Z,2.30
2023-01-17T17:30:12.092Z,2.30
2023-01-17T17:32:38.829Z,2.20
2023-01-17T17:35:06.184Z,2.20
2023-01-17T17:37:36.888Z,2.20
2023-01-17T17:40:06.363Z,2.20
2023-01-17T17:42:35.925Z,2.20
2023-01-17T17:45:02.963Z,2.20
2023-01-17T17:47:29.659Z,2.10
2023-01-17T17:49:56.512Z,2.10
2023-01-17T17:52:23.220Z,2.10
2023-01-17T17:54:52.721Z,2.10
2023-01-17T17:57:19.508Z,2.10
2023-01-17T17:59:47.377Z,2.10
2023-01-17T18:02:14.094Z,2.10
2023-01-17T18:04:40.833Z,2.10
2023-01-17T18:07:07.572Z,2.00
2023-01-17T18:09:34.279Z,2.00
2023-01-17T18:12:01.155Z,2.00
2023-01-17T18:14:27.921Z,2.00
2023-01-17T18:17:01.679Z,2.00
2023-01-17T18:19:28.661Z,2.00
2023-01-17T18:21:55.341Z,2.00
2023-01-17T18:24:24.185Z,1.90
2023-01-17T18:26:53.078Z,1.90
2023-01-17T18:29:24.040Z,1.90
2023-01-17T18:31:53.935Z,1.90
2023-01-17T18:34:23.837Z,1.90
2023-01-17T18:36:52.128Z,1.90
2023-01-17T18:39:19.155Z,1.90
2023-01-17T18:41:46.214Z,1.90
2023-01-17T18:44:13.204Z,1.90
2023-01-17T18:46:40.236Z,1.90
2023-01-17T18:49:07.222Z,1.80
2023-01-17T18:51:34.390Z,1.80
2023-01-17T18:54:01.741Z,1.80
2023-01-17T18:56:30.017Z,1.80
2023-01-17T18:58:57.113Z,1.80
2023-01-17T19:01:26.854Z,1.80
2023-01-17T19:03:55.946Z,1.70
2023-01-17T19:06:29.184Z,1.70
2023-01-17T19:08:56.367Z,1.70
2023-01-17T19:11:24.186Z,1.70
2023-01-17T19:13:51.330Z,1.70
2023-01-17T19:16:26.858Z,1.70
2023-01-17T19:18:54.129Z,1.70
2023-01-17T19:21:22.921Z,1.70
2023-01-17T19:23:50.191Z,1.60
2023-01-17T19:26:18.097Z,1.60
2023-01-17T19:28:46.500Z,1.60
2023-01-17T19:31:16.134Z,1.60
2023-01-17T19:33:44.628Z,1.60
2023-01-17T19:36:17.905Z,1.60
2023-01-17T19:38:58.608Z,1.60
2023-01-17T19:41:27.001Z,1.60
2023-01-17T19:43:58.808Z,1.50
2023-01-17T19:46:25.872Z,1.50
2023-01-17T19:48:53.562Z,1.40
2023-01-17T19:51:21.025Z,1.40
2023-01-17T19:53:48.027Z,1.40
2023-01-17T19:56:17.549Z,1.40
2023-01-17T19:58:45.337Z,1.30
2023-01-17T20:01:17.920Z,1.30
2023-01-17T20:03:46.256Z,1.30
2023-01-17T20:06:17.335Z,1.30
2023-01-17T20:08:44.046Z,1.30
2023-01-17T20:11:13.978Z,1.20
2023-01-17T20:13:41.932Z,1.20
2023-01-17T20:16:10.449Z,1.20
2023-01-17T20:18:37.804Z,1.20
2023-01-17T20:21:08.954Z,1.20
2023-01-17T20:23:37.804Z,1.20
2023-01-17T20:26:05.647Z,1.20
2023-01-17T20:28:34.545Z,1.20
2023-01-17T20:31:06.666Z,1.20
2023-01-17T20:33:33.738Z,1.10
2023-01-17T20:36:10.051Z,1.10
2023-01-17T20:38:37.208Z,1.10
2023-01-17T20:41:03.836Z,1.10
2023-01-17T20:43:30.547Z,1.10
2023-01-17T20:45:57.316Z,1.00
2023-01-17T20:48:24.092Z,1.00
2023-01-17T20:50:50.828Z,1.00
2023-01-17T20:53:17.608Z,1.00
2023-01-17T20:55:44.353Z,1.00
2023-01-17T20:58:11.090Z,1.00
2023-01-17T21:00:37.869Z,1.00
2023-01-17T21:03:04.608Z,1.00
2023-01-17T21:05:31.360Z,1.00
2023-01-17T21:07:58.381Z,1.00
2023-01-17T21:10:25.392Z,1.00
2023-01-17T21:12:52.217Z,1.00
2023-01-17T21:15:19.423Z,1.00
2023-01-17T21:17:48.100Z,0.90
2023-01-17T21:20:15.031Z,0.90
2023-01-17T21:22:41.751Z,0.90
2023-01-17T21:25:08.805Z,0.90
2023-01-17T21:27:35.851Z,0.90
2023-01-17T21:30:06.605Z,0.90
2023-01-17T21:32:33.871Z,0.80
2023-01-17T21:35:00.532Z,0.80
2023-01-17T21:37:27.295Z,0.80
2023-01-17T21:39:54.008Z,0.70
2023-01-17T21:42:20.802Z,0.70
2023-01-17T21:44:49.355Z,0.70
2023-01-17T21:47:16.066Z,0.70
2023-01-17T21:49:42.821Z,0.70
2023-01-17T21:52:11.812Z,0.70
2023-01-17T21:54:38.481Z,0.70
2023-01-17T21:57:05.169Z,0.70
2023-01-17T21:59:31.964Z,0.70
2023-01-17T22:01:58.857Z,0.70
2023-01-17T22:04:25.609Z,0.70
2023-01-17T22:06:52.627Z,0.70
2023-01-17T22:09:19.301Z,0.60
2023-01-17T22:11:46.019Z,0.60
2023-01-17T22:14:12.739Z,0.60
2023-01-17T22:16:39.420Z,0.60
2023-01-17T22:19:06.148Z,0.60
2023-01-17T22:21:32.866Z,0.50
2023-01-17T22:23:59.932Z,0.50
2023-01-17T22:26:29.289Z,0.50
2023-01-17T22:28:59.077Z,0.50
2023-01-17T22:31:27.751Z,0.50
2023-01-17T22:33:55.434Z,0.50
2023-01-17T22:36:22.423Z,0.50
2023-01-17T22:38:49.096Z,0.50
2023-01-17T22:41:18.642Z,0.50
2023-01-17T22:43:47.363Z,0.50
2023-01-17T22:46:17.368Z,0.50
2023-01-17T22:48:44.495Z,0.50
2023-01-17T22:51:13.974Z,0.50
2023-01-17T22:53:48.956Z,0.50
2023-01-17T22:56:21.468Z,0.50
2023-01-17T22:58:48.730Z,0.40
2023-01-17T23:01:19.072Z,0.50
2023-01-17T23:03:50.355Z,0.50
2023-01-17T23:06:20.195Z,0.40
2023-01-17T23:08:49.799Z,0.40
2023-01-17T23:11:22.713Z,0.40
2023-01-17T23:13:49.354Z,0.40
2023-01-17T23:16:16.124Z,0.40
2023-01-17T23:18:42.890Z,0.40
2023-01-17T23:21:09.543Z,0.40
2023-01-17T23:23:36.214Z,0.40
2023-01-17T23:26:02.914Z,0.40
2023-01-17T23:28:29.588Z,0.30
2023-01-17T23:31:01.583Z,0.40
2023-01-17T23:33:28.543Z,0.30
2023-01-17T23:35:55.231Z,0.30
2023-01-17T23:38:21.869Z,0.30
2023-01-17T23:40:48.633Z,0.20
2023-01-17T23:43:15.255Z,0.30
2023-01-17T23:45:42.200Z,0.20
2023-01-17T23:48:09.484Z,0.20
2023-01-17T23:50:38.324Z,0.10
2023-01-17T23:53:05.589Z,0.10
2023-01-17T23:55:36.001Z,0.10
2023-01-17T23:58:02.859Z,0.00
